Time;durP1;ratioP1;P1;durP2;ratioP2;P2;SDS_P1;SDS_P2;PMS_P1;PMS_P2;Temp;Humidity;BMP_temperature;BMP_pressure;BME280_temperature;BME280_humidity;BME280_pressure;Samples;Min_cycle;Max_cycle;Signal;HPM_P1;HPM_P2
2022/04/04 00:00:45;;;;;;;11.32;7.45;;;2.70;99.90;;;;;;5034255;28;20045;-59
2022/04/04 00:03:11;;;;;;;13.52;7.70;;;2.70;99.90;;;;;;5039304;28;20029;-54
2022/04/04 00:05:38;;;;;;;12.77;8.02;;;2.50;99.90;;;;;;5040182;28;20029;-55
2022/04/04 00:08:05;;;;;;;13.25;7.90;;;2.40;99.90;;;;;;5038769;28;20067;-57
2022/04/04 00:10:31;;;;;;;16.95;7.97;;;2.40;99.90;;;;;;5033975;28;20433;-56
2022/04/04 00:12:56;;;;;;;12.32;8.30;;;2.30;99.90;;;;;;5020922;28;20584;-54
2022/04/04 00:15:22;;;;;;;14.27;8.02;;;2.20;99.90;;;;;;5048790;28;20047;-58
2022/04/04 00:17:47;;;;;;;12.27;7.88;;;2.20;99.90;;;;;;5028413;28;20041;-56
2022/04/04 00:20:13;;;;;;;12.60;8.38;;;2.10;99.90;;;;;;5038410;28;20733;-55
2022/04/04 00:22:40;;;;;;;11.57;8.50;;;2.10;99.90;;;;;;5033953;28;20022;-56
2022/04/04 00:25:06;;;;;;;12.00;8.18;;;2.10;99.90;;;;;;5042153;28;20091;-57
2022/04/04 00:27:31;;;;;;;14.20;9.35;;;2.10;99.90;;;;;;5044263;28;20029;-55
2022/04/04 00:29:57;;;;;;;17.52;8.43;;;2.10;99.90;;;;;;5039970;28;20029;-54
2022/04/04 00:32:23;;;;;;;11.45;7.82;;;2.10;99.90;;;;;;5018025;28;20373;-56
2022/04/04 00:34:48;;;;;;;11.15;8.30;;;2.10;99.90;;;;;;5031900;28;20478;-53
2022/04/04 00:37:14;;;;;;;15.55;8.98;;;2.10;99.90;;;;;;5035551;28;20025;-56
2022/04/04 00:39:39;;;;;;;13.40;8.52;;;2.10;99.90;;;;;;5030182;28;20412;-53
2022/04/04 00:42:06;;;;;;;14.18;8.82;;;2.00;99.90;;;;;;5032242;28;20033;-58
2022/04/04 00:44:32;;;;;;;11.15;8.40;;;2.00;99.90;;;;;;5038739;28;20036;-53
2022/04/04 00:46:58;;;;;;;12.15;8.93;;;2.00;99.90;;;;;;5036850;28;20025;-53
2022/04/04 00:49:23;;;;;;;16.20;8.43;;;2.00;99.90;;;;;;5030858;28;20017;-57
2022/04/04 00:51:49;;;;;;;14.40;9.55;;;2.00;99.90;;;;;;5034870;28;20025;-58
2022/04/04 00:54:15;;;;;;;13.85;8.48;;;2.00;99.90;;;;;;5036029;28;20017;-55
2022/04/04 00:56:40;;;;;;;10.10;8.00;;;2.00;99.90;;;;;;5028556;28;20034;-54
2022/04/04 00:59:10;;;;;;;10.85;8.50;;;1.90;99.90;;;;;;5034106;28;20120;-55
2022/04/04 01:01:36;;;;;;;12.13;9.07;;;1.90;99.90;;;;;;5049328;28;20021;-54
2022/04/04 01:04:01;;;;;;;13.90;9.82;;;1.90;99.90;;;;;;5038276;28;20121;-56
2022/04/04 01:06:27;;;;;;;14.07;8.85;;;1.80;99.90;;;;;;5031904;28;20061;-56
2022/04/04 01:08:53;;;;;;;12.13;9.07;;;1.70;99.90;;;;;;5048975;28;20037;-54
2022/04/04 01:11:19;;;;;;;11.77;9.35;;;1.60;99.90;;;;;;5048076;28;20075;-57
2022/04/04 01:13:49;;;;;;;11.95;9.80;;;1.60;99.90;;;;;;5024992;28;20046;-53
2022/04/04 01:16:15;;;;;;;18.30;9.18;;;1.50;99.90;;;;;;5030495;28;20045;-55
2022/04/04 01:18:41;;;;;;;21.27;10.00;;;1.50;99.90;;;;;;5037683;28;20021;-56
2022/04/04 01:21:07;;;;;;;14.07;9.15;;;1.50;99.90;;;;;;5049032;28;20025;-57
2022/04/04 01:23:43;;;;;;;10.95;8.63;;;1.40;99.90;;;;;;5050325;28;20021;-58
2022/04/04 01:26:10;;;;;;;20.45;9.63;;;1.40;99.90;;;;;;5039059;28;20540;-56
2022/04/04 01:28:38;;;;;;;14.50;9.25;;;1.30;99.90;;;;;;5047720;28;20581;-54
2022/04/04 01:31:04;;;;;;;18.50;9.48;;;1.30;99.90;;;;;;5047719;28;20021;-52
2022/04/04 01:33:30;;;;;;;17.60;10.55;;;1.30;99.90;;;;;;5039845;28;20021;-57
2022/04/04 01:35:57;;;;;;;14.38;9.23;;;1.20;99.90;;;;;;5042109;28;20035;-56
2022/04/04 01:38:23;;;;;;;11.48;9.13;;;1.20;99.90;;;;;;5047597;28;20025;-55
2022/04/04 01:40:50;;;;;;;14.23;10.25;;;1.20;99.90;;;;;;5046229;28;20043;-55
2022/04/04 01:43:16;;;;;;;13.23;9.27;;;1.20;99.90;;;;;;5048061;28;20442;-56
2022/04/04 01:48:25;;;;;;;15.52;10.68;;;1.10;99.90;;;;;;5043391;28;20545;-55
2022/04/04 01:50:51;;;;;;;14.05;10.32;;;1.10;99.90;;;;;;5042423;28;20061;-56
2022/04/04 01:53:25;;;;;;;13.00;10.15;;;1.00;99.90;;;;;;5041441;28;20041;-58
2022/04/04 01:55:51;;;;;;;15.50;10.50;;;1.00;99.90;;;;;;5045823;28;20112;-58
2022/04/04 01:58:17;;;;;;;15.90;10.57;;;0.90;99.90;;;;;;5046801;28;20033;-56
2022/04/04 02:00:43;;;;;;;13.05;9.95;;;0.90;99.90;;;;;;5044433;28;20543;-54
2022/04/04 02:03:08;;;;;;;16.02;10.82;;;0.90;99.90;;;;;;5038036;28;20041;-57
2022/04/04 02:05:35;;;;;;;17.95;11.23;;;0.80;99.90;;;;;;5039559;28;20075;-54
2022/04/04 02:08:01;;;;;;;15.25;11.25;;;0.80;99.90;;;;;;5047006;28;20501;-56
2022/04/04 02:10:26;;;;;;;14.65;11.13;;;0.80;99.90;;;;;;5043548;28;20044;-55
2022/04/04 02:12:52;;;;;;;14.57;10.82;;;0.70;99.90;;;;;;5041747;28;20033;-52
2022/04/04 02:15:18;;;;;;;17.60;11.25;;;0.70;99.90;;;;;;5025501;28;20057;-56
2022/04/04 02:17:43;;;;;;;14.48;10.90;;;0.70;99.90;;;;;;5038065;28;20048;-54
2022/04/04 02:20:09;;;;;;;13.57;10.70;;;0.70;99.90;;;;;;5046520;28;20430;-51
2022/04/04 02:22:35;;;;;;;16.38;10.60;;;0.70;99.90;;;;;;5044411;28;20037;-56
2022/04/04 02:25:01;;;;;;;14.07;11.02;;;0.70;99.90;;;;;;5045565;28;20029;-55
2022/04/04 02:27:26;;;;;;;17.77;11.57;;;0.70;99.90;;;;;;5041862;28;20100;-54
2022/04/04 02:29:52;;;;;;;15.90;10.43;;;0.70;99.90;;;;;;5043834;28;20052;-58
2022/04/04 02:32:19;;;;;;;16.25;11.35;;;0.70;99.90;;;;;;5043460;28;20017;-56
2022/04/04 02:34:45;;;;;;;18.45;11.52;;;0.70;99.90;;;;;;5042305;28;20021;-54
2022/04/04 02:37:11;;;;;;;18.42;11.40;;;0.70;99.90;;;;;;5036500;28;20025;-51
2022/04/04 02:39:36;;;;;;;15.30;11.73;;;0.60;99.90;;;;;;5035519;28;20017;-53
2022/04/04 02:42:02;;;;;;;14.83;11.17;;;0.60;99.90;;;;;;5035186;28;20484;-56
2022/04/04 02:44:28;;;;;;;13.77;11.13;;;0.60;99.90;;;;;;5032489;28;20619;-53
2022/04/04 02:46:53;;;;;;;15.27;10.77;;;0.60;99.90;;;;;;5035888;28;20013;-56
2022/04/04 02:49:19;;;;;;;18.55;11.20;;;0.60;99.90;;;;;;5038866;28;20021;-54
2022/04/04 02:51:44;;;;;;;14.18;10.35;;;0.60;99.90;;;;;;5037810;28;20037;-59
2022/04/04 02:54:10;;;;;;;16.27;11.48;;;0.50;99.90;;;;;;5038961;28;20028;-53
2022/04/04 02:56:39;;;;;;;14.90;10.73;;;0.50;99.90;;;;;;5047825;28;20029;-55
2022/04/04 02:59:05;;;;;;;18.00;11.70;;;0.40;99.90;;;;;;5041738;28;20083;-57
2022/04/04 03:01:31;;;;;;;20.27;11.90;;;0.40;99.90;;;;;;5033233;28;20021;-58
2022/04/04 03:03:58;;;;;;;17.25;12.55;;;0.40;99.90;;;;;;5046636;28;20032;-57
2022/04/04 03:06:23;;;;;;;18.50;11.50;;;0.40;99.90;;;;;;5045462;28;20036;-54
2022/04/04 03:08:49;;;;;;;15.83;12.00;;;0.40;99.90;;;;;;5033973;28;20026;-55
2022/04/04 03:11:15;;;;;;;19.58;12.10;;;0.40;99.90;;;;;;5042182;28;20067;-57
2022/04/04 03:13:41;;;;;;;18.33;12.27;;;0.40;99.90;;;;;;5022976;28;20081;-55
2022/04/04 03:16:07;;;;;;;20.23;12.20;;;0.30;99.90;;;;;;5032898;28;20025;-57
2022/04/04 03:18:35;;;;;;;19.10;13.47;;;0.40;99.90;;;;;;5044355;28;20506;-57
2022/04/04 03:21:03;;;;;;;16.20;12.20;;;0.40;99.90;;;;;;5038470;28;20028;-57
2022/04/04 03:23:30;;;;;;;17.20;11.93;;;0.40;99.90;;;;;;5043664;28;20028;-53
2022/04/04 03:25:56;;;;;;;21.35;12.05;;;0.40;99.90;;;;;;5041484;28;20409;-58
2022/04/04 03:28:21;;;;;;;18.02;11.73;;;0.40;99.90;;;;;;5030817;28;20110;-54
2022/04/04 03:30:48;;;;;;;20.83;11.80;;;0.40;99.90;;;;;;5040502;28;20126;-56
2022/04/04 03:33:15;;;;;;;22.45;12.98;;;0.40;99.90;;;;;;5035091;28;20106;-57
2022/04/04 03:35:41;;;;;;;19.33;12.37;;;0.40;99.90;;;;;;5036701;28;20653;-58
2022/04/04 03:38:10;;;;;;;18.90;12.65;;;0.40;99.90;;;;;;5041109;28;20038;-59
2022/04/04 03:40:37;;;;;;;18.98;11.82;;;0.40;99.90;;;;;;5030898;28;20025;-53
2022/04/04 03:43:03;;;;;;;18.33;12.27;;;0.40;99.90;;;;;;5031019;28;20041;-56
2022/04/04 03:45:30;;;;;;;17.92;11.52;;;0.40;99.90;;;;;;5047250;28;20400;-56
2022/04/04 03:47:56;;;;;;;20.35;13.15;;;0.40;99.90;;;;;;5043465;28;20120;-55
2022/04/04 03:50:22;;;;;;;18.13;12.38;;;0.40;99.90;;;;;;5034426;28;20060;-57
2022/04/04 03:52:52;;;;;;;24.60;12.55;;;0.40;99.90;;;;;;5046324;28;20035;-55
2022/04/04 03:55:19;;;;;;;21.92;12.30;;;0.40;99.90;;;;;;5045207;28;20032;-55
2022/04/04 03:57:45;;;;;;;18.95;11.98;;;0.30;99.90;;;;;;5044603;28;20048;-57
2022/04/04 04:00:11;;;;;;;18.23;12.60;;;0.30;99.90;;;;;;5043497;28;20036;-57
2022/04/04 04:02:37;;;;;;;19.50;12.63;;;0.30;99.90;;;;;;5041864;28;20037;-55
2022/04/04 04:05:04;;;;;;;20.57;11.67;;;0.30;99.90;;;;;;5035511;28;20041;-57
2022/04/04 04:07:30;;;;;;;18.73;11.75;;;0.40;99.90;;;;;;5030539;28;20033;-57
2022/04/04 04:09:56;;;;;;;19.25;12.75;;;0.40;99.90;;;;;;5040348;28;20103;-53
2022/04/04 04:12:21;;;;;;;17.90;12.25;;;0.40;99.90;;;;;;5041064;28;20056;-56
2022/04/04 04:14:52;;;;;;;17.90;11.40;;;0.40;99.90;;;;;;5011203;28;20501;-58
2022/04/04 04:17:19;;;;;;;17.67;12.18;;;0.50;99.90;;;;;;5030176;28;20026;-54
2022/04/04 04:22:30;;;;;;;17.45;12.10;;;0.50;99.90;;;;;;5044046;28;20035;-56
2022/04/04 04:24:56;;;;;;;18.98;11.27;;;0.50;99.90;;;;;;5031605;28;20029;-52
2022/04/04 04:27:22;;;;;;;18.73;12.30;;;0.50;99.90;;;;;;5029824;28;20125;-56
2022/04/04 04:29:47;;;;;;;21.10;10.95;;;0.60;99.90;;;;;;5034371;28;20368;-56
2022/04/04 04:32:13;;;;;;;20.70;12.52;;;0.60;99.90;;;;;;5049674;28;20048;-51
2022/04/04 04:34:39;;;;;;;19.60;11.90;;;0.50;99.90;;;;;;5038902;28;20025;-55
2022/04/04 04:37:05;;;;;;;16.63;11.50;;;0.60;99.90;;;;;;5041797;28;20704;-59
2022/04/04 04:39:31;;;;;;;16.92;11.10;;;0.50;99.90;;;;;;5039959;28;20021;-53
2022/04/04 04:41:57;;;;;;;19.92;11.25;;;0.50;99.90;;;;;;5038378;28;20055;-52
2022/04/04 04:44:23;;;;;;;18.85;11.35;;;0.60;99.90;;;;;;5041002;28;20476;-56
2022/04/04 04:46:49;;;;;;;16.27;11.13;;;0.50;99.90;;;;;;5042966;28;20033;-53
2022/04/04 04:49:16;;;;;;;18.30;11.95;;;0.60;99.90;;;;;;5037252;28;20029;-56
2022/04/04 04:51:42;;;;;;;20.10;11.45;;;0.60;99.90;;;;;;5044151;28;20021;-54
2022/04/04 04:54:08;;;;;;;16.85;10.88;;;0.60;99.90;;;;;;5048654;28;20397;-55
2022/04/04 04:56:34;;;;;;;17.83;10.90;;;0.60;99.90;;;;;;5041439;28;20029;-57
2022/04/04 04:59:00;;;;;;;19.20;11.20;;;0.60;99.90;;;;;;5037791;28;20036;-55
2022/04/04 05:01:25;;;;;;;19.45;10.88;;;0.70;99.90;;;;;;5034307;28;20025;-55
2022/04/04 05:03:51;;;;;;;18.52;11.35;;;0.70;99.90;;;;;;5048247;28;20187;-56
2022/04/04 05:06:17;;;;;;;16.10;10.68;;;0.70;99.90;;;;;;5044342;28;20022;-56
2022/04/04 05:08:43;;;;;;;17.30;10.90;;;0.70;99.90;;;;;;5034618;28;20045;-56
2022/04/04 05:11:08;;;;;;;20.85;11.77;;;0.80;99.90;;;;;;5043035;28;20678;-54
2022/04/04 05:13:34;;;;;;;19.33;11.65;;;0.80;99.90;;;;;;5044907;28;20223;-55
2022/04/04 05:15:59;;;;;;;88.78;36.22;;;0.80;99.90;;;;;;5022470;28;20045;-54
2022/04/04 05:18:26;;;;;;;74.85;39.55;;;0.90;99.90;;;;;;5046574;28;20463;-56
2022/04/04 05:20:52;;;;;;;60.85;31.20;;;0.90;99.90;;;;;;5052871;28;20025;-55
2022/04/04 05:23:17;;;;;;;34.20;20.67;;;1.00;99.90;;;;;;5051111;28;20511;-52
2022/04/04 05:25:43;;;;;;;22.63;15.27;;;1.00;99.90;;;;;;5034711;28;20108;-54
2022/04/04 05:28:10;;;;;;;19.00;12.40;;;1.10;99.90;;;;;;5048238;28;20460;-53
2022/04/04 05:30:36;;;;;;;24.77;18.02;;;1.20;99.90;;;;;;5052729;28;20507;-54
2022/04/04 05:33:02;;;;;;;119.25;47.85;;;1.30;99.90;;;;;;5040452;28;20028;-56
2022/04/04 05:35:28;;;;;;;58.75;25.77;;;1.30;99.90;;;;;;5052893;28;20388;-55
2022/04/04 05:37:54;;;;;;;50.75;23.48;;;1.40;99.90;;;;;;5048344;28;20136;-55
2022/04/04 05:40:24;;;;;;;50.05;22.10;;;1.40;99.90;;;;;;5049151;28;20029;-51
2022/04/04 05:42:50;;;;;;;24.20;12.90;;;1.50;99.90;;;;;;5042466;28;20074;-54
2022/04/04 05:45:15;;;;;;;22.88;12.02;;;1.60;99.90;;;;;;5039817;28;20025;-52
2022/04/04 05:47:44;;;;;;;35.45;16.13;;;1.60;99.90;;;;;;5039525;28;20037;-57
2022/04/04 05:50:09;;;;;;;21.52;11.68;;;1.60;99.90;;;;;;5043596;28;20100;-55
2022/04/04 05:52:35;;;;;;;14.43;8.40;;;1.80;99.90;;;;;;5037774;28;20108;-57
2022/04/04 05:55:05;;;;;;;15.13;8.73;;;1.90;99.90;;;;;;5046158;28;20083;-59
2022/04/04 05:57:34;;;;;;;17.15;9.70;;;2.10;99.90;;;;;;5037767;28;20108;-52
2022/04/04 06:00:00;;;;;;;19.13;10.45;;;2.30;99.90;;;;;;5032645;28;20447;-54
2022/04/04 06:02:27;;;;;;;11.88;8.20;;;2.50;99.90;;;;;;5040996;28;20742;-55
2022/04/04 06:04:53;;;;;;;12.27;7.15;;;2.70;99.90;;;;;;5034311;28;20037;-56
2022/04/04 06:07:19;;;;;;;12.98;7.60;;;2.90;99.90;;;;;;5032436;28;20440;-57
2022/04/04 06:09:45;;;;;;;18.77;8.10;;;3.20;99.90;;;;;;5042573;28;20074;-57
2022/04/04 06:12:11;;;;;;;13.50;7.53;;;3.40;99.90;;;;;;5042933;28;20041;-54
2022/04/04 06:14:37;;;;;;;14.07;6.93;;;3.80;99.90;;;;;;5036570;28;20090;-55
2022/04/04 06:17:05;;;;;;;22.17;12.80;;;4.00;99.90;;;;;;5018059;28;20560;-56
2022/04/04 06:19:31;;;;;;;26.33;11.93;;;4.40;99.90;;;;;;5044817;28;20021;-55
2022/04/04 06:21:57;;;;;;;22.80;10.90;;;5.20;99.90;;;;;;5044641;28;20079;-56
2022/04/04 06:24:22;;;;;;;18.90;9.73;;;5.40;99.90;;;;;;5037308;28;20586;-58
2022/04/04 06:26:48;;;;;;;13.93;7.35;;;5.50;99.90;;;;;;5046060;28;20423;-58
2022/04/04 06:29:14;;;;;;;12.50;7.20;;;5.80;99.90;;;;;;5037562;28;20102;-55
2022/04/04 06:31:40;;;;;;;14.05;7.97;;;5.70;99.90;;;;;;5042274;28;20053;-57
2022/04/04 06:34:08;;;;;;;11.18;7.65;;;5.80;99.90;;;;;;5043684;28;20359;-57
2022/04/04 06:36:34;;;;;;;15.05;7.60;;;5.90;99.80;;;;;;5045632;28;20076;-55
2022/04/04 06:38:59;;;;;;;12.00;6.65;;;6.20;99.80;;;;;;5035413;28;20066;-58
2022/04/04 06:41:25;;;;;;;9.18;5.75;;;5.80;99.70;;;;;;5045310;28;20037;-56
2022/04/04 06:43:51;;;;;;;11.23;6.78;;;5.70;99.70;;;;;;5048677;28;20136;-57
2022/04/04 06:46:17;;;;;;;10.00;5.90;;;5.90;99.60;;;;;;5036058;28;20038;-54
2022/04/04 06:48:45;;;;;;;11.55;7.40;;;6.10;99.40;;;;;;5037679;28;20463;-56
2022/04/04 06:51:11;;;;;;;8.82;5.25;;;6.00;99.20;;;;;;5045448;28;20047;-57
2022/04/04 06:53:37;;;;;;;21.60;9.52;;;6.30;98.60;;;;;;5033254;28;20033;-57
2022/04/04 06:56:03;;;;;;;13.57;6.78;;;6.70;97.50;;;;;;5033446;28;20083;-55
2022/04/04 06:58:29;;;;;;;18.35;9.82;;;6.90;97.10;;;;;;5035893;28;20074;-54
2022/04/04 07:00:54;;;;;;;31.13;15.15;;;7.10;96.90;;;;;;5034614;28;20597;-55
2022/04/04 07:03:20;;;;;;;23.27;10.50;;;7.20;96.50;;;;;;5045534;28;20516;-54
2022/04/04 07:05:46;;;;;;;24.55;12.93;;;7.60;96.40;;;;;;5043197;28;20035;-60
2022/04/04 07:08:11;;;;;;;46.45;22.55;;;7.50;96.00;;;;;;5041296;28;20031;-52
2022/04/04 07:10:37;;;;;;;25.33;11.23;;;7.20;96.40;;;;;;5038549;28;20040;-57
2022/04/04 07:13:06;;;;;;;15.05;7.80;;;7.00;95.40;;;;;;5033906;28;20037;-55
2022/04/04 07:15:32;;;;;;;15.13;9.15;;;6.90;95.90;;;;;;5017564;28;20050;-54
2022/04/04 07:17:58;;;;;;;16.67;8.48;;;7.40;95.70;;;;;;5044740;28;20030;-57
2022/04/04 07:20:24;;;;;;;13.90;6.75;;;7.60;95.10;;;;;;5035149;28;20036;-55
2022/04/04 07:22:50;;;;;;;19.92;9.20;;;7.40;95.10;;;;;;5038639;28;20031;-56
2022/04/04 07:25:16;;;;;;;29.95;15.02;;;7.70;94.60;;;;;;5042676;28;20053;-60
2022/04/04 07:27:45;;;;;;;22.77;10.38;;;8.40;94.00;;;;;;5033131;28;20114;-58
2022/04/04 07:30:14;;;;;;;14.27;7.75;;;9.10;92.30;;;;;;5045878;28;20025;-57
2022/04/04 07:32:40;;;;;;;14.65;8.85;;;9.40;92.10;;;;;;5039123;28;20049;-57
2022/04/04 07:35:10;;;;;;;11.13;6.53;;;9.50;91.00;;;;;;5033961;28;20064;-58
2022/04/04 07:37:36;;;;;;;19.08;9.70;;;9.30;91.10;;;;;;5040019;28;20025;-54
2022/04/04 07:40:01;;;;;;;26.92;13.55;;;9.00;91.30;;;;;;5044603;28;20047;-52
2022/04/04 07:42:27;;;;;;;25.20;11.20;;;8.60;91.70;;;;;;5059085;28;20033;-56
2022/04/04 07:44:53;;;;;;;13.70;8.45;;;8.80;91.30;;;;;;5068204;28;20056;-55
2022/04/04 07:47:19;;;;;;;9.90;6.40;;;9.00;92.40;;;;;;5059591;28;20404;-57
2022/04/04 07:49:44;;;;;;;10.18;7.03;;;9.90;90.60;;;;;;5050593;28;20028;-57
2022/04/04 07:52:10;;;;;;;12.73;7.93;;;10.20;88.40;;;;;;5058883;28;20102;-59
2022/04/04 07:54:36;;;;;;;5.78;4.43;;;9.60;88.00;;;;;;5064822;28;20074;-56
2022/04/04 07:57:01;;;;;;;9.35;5.05;;;8.70;89.50;;;;;;5053262;28;20442;-56
2022/04/04 07:59:27;;;;;;;9.73;5.22;;;8.60;90.60;;;;;;5050568;28;20490;-57
2022/04/04 08:01:52;;;;;;;8.32;5.07;;;8.50;90.70;;;;;;5058423;28;20021;-55
2022/04/04 08:04:19;;;;;;;9.77;5.18;;;8.90;90.60;;;;;;5052275;28;20032;-55
2022/04/04 08:06:45;;;;;;;10.68;6.60;;;9.10;89.90;;;;;;5057067;28;20668;-53
2022/04/04 08:09:11;;;;;;;15.10;4.70;;;9.00;90.10;;;;;;5062843;28;20040;-56
2022/04/04 08:11:36;;;;;;;8.38;4.43;;;9.40;89.30;;;;;;5069492;28;20016;-57
2022/04/04 08:14:03;;;;;;;6.32;3.58;;;9.00;86.90;;;;;;5052221;28;20029;-58
2022/04/04 08:16:29;;;;;;;9.80;4.15;;;8.40;88.70;;;;;;5057669;28;20109;-59
2022/04/04 08:18:56;;;;;;;9.52;4.93;;;7.80;90.10;;;;;;5047103;28;20534;-58
2022/04/04 08:21:23;;;;;;;10.93;4.68;;;7.30;91.40;;;;;;5049180;28;20036;-59
2022/04/04 08:23:48;;;;;;;10.30;5.15;;;7.20;91.70;;;;;;5061828;28;20052;-55
2022/04/04 08:26:14;;;;;;;10.32;4.85;;;7.20;91.30;;;;;;5055879;28;20057;-51
2022/04/04 08:28:40;;;;;;;8.45;4.32;;;7.20;91.40;;;;;;5065213;28;20025;-58
2022/04/04 08:31:06;;;;;;;8.63;5.30;;;7.30;91.40;;;;;;5068909;28;20424;-59
2022/04/04 08:33:32;;;;;;;5.18;4.20;;;7.20;91.50;;;;;;5060459;28;20107;-54
2022/04/04 08:35:58;;;;;;;26.20;7.97;;;7.10;91.70;;;;;;5059040;28;20424;-55
2022/04/04 08:38:23;;;;;;;23.45;5.53;;;7.20;91.60;;;;;;5058464;28;20032;-55
2022/04/04 08:40:51;;;;;;;25.77;7.80;;;7.50;91.70;;;;;;5056944;28;20021;-59
2022/04/04 08:43:20;;;;;;;10.10;4.25;;;7.80;91.20;;;;;;5051950;28;20119;-58
2022/04/04 08:45:48;;;;;;;5.90;3.42;;;8.00;90.70;;;;;;5059311;28;20021;-60
2022/04/04 08:48:15;;;;;;;7.93;3.15;;;8.30;90.80;;;;;;5067198;28;20032;-52
2022/04/04 08:50:41;;;;;;;8.27;4.43;;;8.60;90.60;;;;;;5068155;28;20025;-60
2022/04/04 08:53:07;;;;;;;13.45;5.30;;;8.60;90.30;;;;;;5070307;28;20028;-57
2022/04/04 08:55:34;;;;;;;14.45;5.28;;;8.60;90.10;;;;;;5065992;28;20032;-58
2022/04/04 08:57:59;;;;;;;15.35;7.18;;;8.90;90.20;;;;;;5069399;28;20479;-55
2022/04/04 09:00:25;;;;;;;9.25;3.00;;;9.10;89.20;;;;;;5060447;28;20037;-59
2022/04/04 09:03:05;;;;;;;8.93;4.30;;;8.80;88.80;;;;;;5063170;28;20400;-55
2022/04/04 09:05:35;;;;;;;13.52;4.85;;;8.80;89.50;;;;;;5065626;28;20024;-61
2022/04/04 09:08:06;;;;;;;29.33;9.73;;;9.30;89.70;;;;;;5053517;28;20037;-56
2022/04/04 09:10:40;;;;;;;14.13;5.10;;;9.20;88.70;;;;;;5066783;28;20024;-57
2022/04/04 09:13:16;;;;;;;11.63;4.93;;;9.70;87.30;;;;;;5072062;28;20035;-58
2022/04/04 09:15:55;;;;;;;13.27;6.00;;;10.10;86.80;;;;;;5064384;28;20029;-58
2022/04/04 09:18:42;;;;;;;8.73;4.20;;;9.40;86.20;;;;;;5066593;28;20020;-58
2022/04/04 09:21:11;;;;;;;7.03;4.00;;;9.10;86.40;;;;;;5055475;28;20411;-58
2022/04/04 09:23:46;;;;;;;35.08;10.93;;;9.10;87.20;;;;;;5058014;28;20037;-57
2022/04/04 09:26:37;;;;;;;12.15;5.43;;;9.40;87.10;;;;;;5066375;28;20035;-57
2022/04/04 09:29:20;;;;;;;7.93;3.80;;;9.30;86.60;;;;;;5060593;28;20444;-58
2022/04/04 09:32:09;;;;;;;10.82;3.70;;;8.80;87.60;;;;;;5054045;28;20029;-56
2022/04/04 09:34:54;;;;;;;8.15;3.92;;;8.90;87.30;;;;;;5061720;28;20032;-59
2022/04/04 09:37:21;;;;;;;5.85;3.72;;;8.70;87.10;;;;;;5058277;28;20104;-54
2022/04/04 09:39:49;;;;;;;11.45;4.03;;;8.80;88.00;;;;;;5062663;28;20430;-56
2022/04/04 09:42:19;;;;;;;7.80;4.05;;;8.60;87.80;;;;;;5067712;28;20036;-53
2022/04/04 09:45:05;;;;;;;25.77;12.07;;;8.80;87.80;;;;;;5062936;28;20057;-58
2022/04/04 09:47:50;;;;;;;16.80;6.93;;;8.60;89.20;;;;;;5053505;28;20036;-57
2022/04/04 09:50:35;;;;;;;19.75;9.40;;;8.80;88.60;;;;;;5052776;28;20407;-55
2022/04/04 09:53:03;;;;;;;12.63;7.65;;;8.90;87.70;;;;;;5064662;28;20040;-56
2022/04/04 09:55:35;;;;;;;24.92;9.63;;;8.70;86.70;;;;;;5057564;28;20064;-56
2022/04/04 09:58:04;;;;;;;8.98;2.90;;;8.70;88.00;;;;;;5067642;28;20509;-58
2022/04/04 10:00:29;;;;;;;11.82;5.38;;;8.90;86.40;;;;;;5059153;28;20475;-59
2022/04/04 10:02:57;;;;;;;10.48;4.85;;;8.90;86.80;;;;;;5067832;28;20042;-53
2022/04/04 10:05:26;;;;;;;15.75;6.80;;;9.20;86.20;;;;;;5064989;28;20050;-56
2022/04/04 10:07:56;;;;;;;13.60;7.03;;;9.50;84.20;;;;;;5057909;28;20572;-55
2022/04/04 10:10:27;;;;;;;8.73;4.65;;;9.10;84.80;;;;;;5061502;28;20194;-56
2022/04/04 10:12:55;;;;;;;4.05;2.05;;;9.20;85.20;;;;;;5057270;28;20104;-57
2022/04/04 10:15:22;;;;;;;11.70;5.45;;;8.40;85.20;;;;;;5057665;28;20025;-55
2022/04/04 10:17:50;;;;;;;4.63;2.60;;;8.20;85.50;;;;;;5062363;28;20021;-54
2022/04/04 10:20:16;;;;;;;13.93;7.50;;;8.10;87.70;;;;;;5033835;28;20037;-49
2022/04/04 10:22:43;;;;;;;10.52;6.22;;;8.00;90.00;;;;;;5052121;28;20033;-53
2022/04/04 10:25:09;;;;;;;8.63;4.03;;;8.10;89.50;;;;;;5052912;28;20048;-52
2022/04/04 10:27:36;;;;;;;6.80;3.10;;;8.00;89.30;;;;;;5057157;28;20079;-54
2022/04/04 10:30:04;;;;;;;4.47;2.50;;;7.70;90.40;;;;;;5059437;28;20075;-56
2022/04/04 10:32:31;;;;;;;4.95;2.92;;;7.50;91.20;;;;;;5059606;28;20024;-54
2022/04/04 10:34:58;;;;;;;6.10;3.47;;;7.10;91.30;;;;;;5063854;28;20020;-55
2022/04/04 10:37:29;;;;;;;4.97;2.90;;;7.20;92.20;;;;;;5057641;28;20078;-55
2022/04/04 10:39:55;;;;;;;4.68;2.83;;;7.00;92.20;;;;;;5058895;28;20028;-56
2022/04/04 10:42:31;;;;;;;7.18;2.90;;;7.00;93.00;;;;;;5056614;28;20033;-48
2022/04/04 10:45:03;;;;;;;4.60;2.85;;;7.20;93.00;;;;;;5054593;28;20020;-56
2022/04/04 10:47:31;;;;;;;5.30;3.13;;;7.20;92.70;;;;;;5061637;28;20600;-54
2022/04/04 10:50:15;;;;;;;6.25;2.65;;;7.40;92.90;;;;;;5060170;28;20112;-58
2022/04/04 10:52:44;;;;;;;4.45;2.33;;;7.60;91.90;;;;;;5059910;28;20535;-57
2022/04/04 10:55:38;;;;;;;4.22;2.60;;;7.50;91.40;;;;;;5056410;28;20033;-56
2022/04/04 10:58:16;;;;;;;8.75;4.18;;;7.60;91.60;;;;;;5057941;28;20427;-57
2022/04/04 11:00:53;;;;;;;7.63;4.50;;;7.70;92.20;;;;;;5058413;28;20128;-53
2022/04/04 11:03:46;;;;;;;11.90;5.82;;;8.00;92.40;;;;;;5061296;28;20023;-55
2022/04/04 11:09:11;;;;;;;37.33;15.00;;;8.00;92.20;;;;;;5053108;28;20523;-53
2022/04/04 11:11:44;;;;;;;15.20;8.55;;;7.70;92.90;;;;;;5056361;28;20024;-52
2022/04/04 11:14:37;;;;;;;8.45;4.90;;;7.70;93.10;;;;;;5059034;28;20480;-55
2022/04/04 11:17:08;;;;;;;6.80;3.67;;;7.30;94.00;;;;;;5055938;28;20036;-58
2022/04/04 11:19:53;;;;;;;7.72;3.35;;;7.30;95.00;;;;;;5061687;28;20060;-56
2022/04/04 11:22:23;;;;;;;7.00;3.90;;;7.20;95.60;;;;;;5046022;28;20102;-58
2022/04/04 11:24:51;;;;;;;8.63;4.32;;;7.20;96.50;;;;;;5070736;28;20017;-56
2022/04/04 11:27:17;;;;;;;29.35;13.57;;;7.00;96.40;;;;;;5067041;28;20029;-53
2022/04/04 11:29:43;;;;;;;11.73;5.65;;;6.90;96.60;;;;;;5058585;28;20094;-56
2022/04/04 11:32:16;;;;;;;9.40;4.82;;;6.80;96.40;;;;;;5060762;28;20017;-55
2022/04/04 11:34:42;;;;;;;10.32;4.75;;;6.50;97.60;;;;;;5061375;28;20085;-53
2022/04/04 11:37:19;;;;;;;6.63;4.25;;;6.40;99.30;;;;;;5057494;28;20024;-60
2022/04/04 11:39:47;;;;;;;4.28;2.63;;;6.30;99.90;;;;;;5060796;28;20128;-56
2022/04/04 11:42:12;;;;;;;6.70;3.85;;;6.20;99.90;;;;;;5070862;28;20640;-55
2022/04/04 11:44:46;;;;;;;11.02;4.70;;;6.00;99.90;;;;;;5063140;28;20115;-53
2022/04/04 11:47:12;;;;;;;5.32;3.22;;;6.00;99.90;;;;;;5070606;28;20029;-54
2022/04/04 11:49:42;;;;;;;7.30;5.07;;;6.00;99.90;;;;;;5068408;28;20032;-59
2022/04/04 11:52:09;;;;;;;9.77;4.75;;;6.00;99.90;;;;;;5058738;28;20506;-59
2022/04/04 11:54:49;;;;;;;6.93;3.78;;;5.90;99.90;;;;;;5067468;28;20047;-54
2022/04/04 11:57:15;;;;;;;8.73;4.70;;;6.00;99.90;;;;;;5055918;28;20024;-56
2022/04/04 11:59:43;;;;;;;9.98;3.97;;;6.00;99.90;;;;;;5059137;28;20535;-56
2022/04/04 12:02:11;;;;;;;6.40;4.25;;;5.90;99.90;;;;;;5051392;28;20108;-57
2022/04/04 12:04:38;;;;;;;8.63;3.80;;;6.00;99.90;;;;;;5057457;28;20028;-54
2022/04/04 12:07:04;;;;;;;6.47;4.50;;;6.10;99.90;;;;;;5058129;28;20094;-56
2022/04/04 12:09:34;;;;;;;6.65;4.13;;;6.00;99.90;;;;;;5058474;28;20024;-55
2022/04/04 12:12:18;;;;;;;6.68;4.32;;;5.90;99.90;;;;;;5059700;28;20032;-55
2022/04/04 12:14:47;;;;;;;12.20;4.05;;;5.80;99.90;;;;;;5057445;28;20032;-53
2022/04/04 12:17:14;;;;;;;7.45;4.75;;;5.80;99.90;;;;;;5058973;28;20043;-57
2022/04/04 12:19:45;;;;;;;7.82;4.45;;;5.70;99.90;;;;;;5057214;28;20083;-53
2022/04/04 12:24:59;;;;;;;10.93;4.75;;;5.70;99.90;;;;;;5047225;28;20039;-56
2022/04/04 12:27:24;;;;;;;15.18;5.82;;;5.60;99.90;;;;;;5045719;28;20025;-55
2022/04/04 12:30:01;;;;;;;7.40;4.80;;;5.60;99.90;;;;;;5049410;28;20021;-54
2022/04/04 12:32:33;;;;;;;12.15;5.93;;;5.70;99.90;;;;;;5048796;28;20108;-56
2022/04/04 12:34:59;;;;;;;7.25;4.85;;;5.80;99.90;;;;;;5048983;28;20025;-58
2022/04/04 12:37:56;;;;;;;9.00;4.50;;;5.90;99.90;;;;;;5049521;28;20021;-56
2022/04/04 12:40:23;;;;;;;10.23;4.25;;;6.00;99.90;;;;;;5046943;28;20064;-59
2022/04/04 12:42:50;;;;;;;7.53;4.47;;;6.00;99.90;;;;;;5049216;28;20436;-55
2022/04/04 12:45:18;;;;;;;6.55;3.55;;;6.00;99.90;;;;;;5049265;28;20021;-56
2022/04/04 12:48:11;;;;;;;9.13;5.05;;;6.00;99.90;;;;;;5047634;28;20021;-58
2022/04/04 12:50:37;;;;;;;7.60;4.75;;;6.10;99.90;;;;;;5044694;28;20420;-57
2022/04/04 12:53:06;;;;;;;13.13;4.43;;;5.90;99.90;;;;;;5044615;28;20032;-56
2022/04/04 12:55:33;;;;;;;11.27;5.75;;;5.90;99.90;;;;;;5045649;28;20365;-55
2022/04/04 12:58:23;;;;;;;8.77;4.57;;;5.70;99.90;;;;;;5047955;28;20484;-51
2022/04/04 13:00:52;;;;;;;6.72;3.70;;;5.60;99.90;;;;;;5045911;28;20087;-57